sensor_id;sensor_type;location;lat;lon;timestamp;pressure;altitude;pressure_sealevel;temperature;humidity
21273;BME280;36726;52.328;10.552;2023-02-28T00:00:22;102103.38;;;0.93;82.34
21273;BME280;36726;52.328;10.552;2023-02-28T00:02:49;102105.16;;;0.94;82.00
21273;BME280;36726;52.328;10.552;2023-02-28T00:05:18;102106.19;;;0.96;81.94
21273;BME280;36726;52.328;10.552;2023-02-28T00:07:45;102101.78;;;0.95;82.52
21273;BME280;36726;52.328;10.552;2023-02-28T00:10:15;102101.78;;;0.95;82.45
21273;BME280;36726;52.328;10.552;2023-02-28T00:12:45;102103.25;;;0.92;82.90
21273;BME280;36726;52.328;10.552;2023-02-28T00:15:11;102101.97;;;0.87;82.81
21273;BME280;36726;52.328;10.552;2023-02-28T00:17:38;102098.25;;;0.83;83.29
21273;BME280;36726;52.328;10.552;2023-02-28T00:20:06;102098.69;;;0.78;83.10
21273;BME280;36726;52.328;10.552;2023-02-28T00:22:40;102098.25;;;0.72;82.94
21273;BME280;36726;52.328;10.552;2023-02-28T00:25:08;102098.91;;;0.69;82.98
21273;BME280;36726;52.328;10.552;2023-02-28T00:27:36;102099.56;;;0.67;83.38
21273;BME280;36726;52.328;10.552;2023-02-28T00:30:04;102098.41;;;0.63;82.92
21273;BME280;36726;52.328;10.552;2023-02-28T00:32:32;102092.78;;;0.57;83.22
21273;BME280;36726;52.328;10.552;2023-02-28T00:35:00;102091.63;;;0.54;83.53
21273;BME280;36726;52.328;10.552;2023-02-28T00:37:27;102093.09;;;0.50;83.66
21273;BME280;36726;52.328;10.552;2023-02-28T00:39:53;102097.00;;;0.45;83.60
21273;BME280;36726;52.328;10.552;2023-02-28T00:42:21;102090.81;;;0.43;83.75
21273;BME280;36726;52.328;10.552;2023-02-28T00:44:48;102094.88;;;0.40;83.35
21273;BME280;36726;52.328;10.552;2023-02-28T00:47:14;102091.09;;;0.36;83.87
21273;BME280;36726;52.328;10.552;2023-02-28T00:49:42;102090.09;;;0.34;83.99
21273;BME280;36726;52.328;10.552;2023-02-28T00:52:09;102090.88;;;0.33;83.46
21273;BME280;36726;52.328;10.552;2023-02-28T00:54:36;102089.63;;;0.28;84.16
21273;BME280;36726;52.328;10.552;2023-02-28T00:57:02;102094.59;;;0.25;83.97
21273;BME280;36726;52.328;10.552;2023-02-28T00:59:30;102100.47;;;0.23;84.65
21273;BME280;36726;52.328;10.552;2023-02-28T01:01:57;102101.50;;;0.25;83.82
21273;BME280;36726;52.328;10.552;2023-02-28T01:04:24;102103.28;;;0.26;83.71
21273;BME280;36726;52.328;10.552;2023-02-28T01:06:50;102097.44;;;0.28;84.05
21273;BME280;36726;52.328;10.552;2023-02-28T01:09:17;102102.63;;;0.28;84.36
21273;BME280;36726;52.328;10.552;2023-02-28T01:11:43;102092.22;;;0.28;84.70
21273;BME280;36726;52.328;10.552;2023-02-28T01:14:15;102093.25;;;0.30;84.19
21273;BME280;36726;52.328;10.552;2023-02-28T01:16:44;102087.94;;;0.29;83.88
21273;BME280;36726;52.328;10.552;2023-02-28T01:19:11;102083.50;;;0.28;83.59
21273;BME280;36726;52.328;10.552;2023-02-28T01:21:38;102086.78;;;0.25;83.11
21273;BME280;36726;52.328;10.552;2023-02-28T01:24:05;102083.16;;;0.23;83.42
21273;BME280;36726;52.328;10.552;2023-02-28T01:26:31;102082.91;;;0.20;83.13
21273;BME280;36726;52.328;10.552;2023-02-28T01:28:58;102083.47;;;0.16;83.45
21273;BME280;36726;52.328;10.552;2023-02-28T01:31:25;102087.38;;;0.11;83.49
21273;BME280;36726;52.328;10.552;2023-02-28T01:33:51;102082.88;;;0.09;84.26
21273;BME280;36726;52.328;10.552;2023-02-28T01:36:23;102073.13;;;0.06;84.26
21273;BME280;36726;52.328;10.552;2023-02-28T01:38:50;102083.31;;;0.03;84.72
21273;BME280;36726;52.328;10.552;2023-02-28T01:41:25;102083.06;;;0.00;84.54
21273;BME280;36726;52.328;10.552;2023-02-28T01:43:59;102081.78;;;-0.05;84.67
21273;BME280;36726;52.328;10.552;2023-02-28T01:46:34;102082.34;;;-0.09;84.70
21273;BME280;36726;52.328;10.552;2023-02-28T01:49:08;102077.81;;;-0.12;84.93
21273;BME280;36726;52.328;10.552;2023-02-28T01:51:49;102076.66;;;-0.15;85.30
21273;BME280;36726;52.328;10.552;2023-02-28T01:54:23;102073.03;;;-0.17;85.40
21273;BME280;36726;52.328;10.552;2023-02-28T01:56:58;102076.16;;;-0.21;85.62
21273;BME280;36726;52.328;10.552;2023-02-28T01:59:33;102073.31;;;-0.24;85.59
21273;BME280;36726;52.328;10.552;2023-02-28T02:02:02;102072.19;;;-0.28;86.00
21273;BME280;36726;52.328;10.552;2023-02-28T02:04:36;102069.19;;;-0.32;85.75
21273;BME280;36726;52.328;10.552;2023-02-28T02:07:03;102065.44;;;-0.36;85.67
21273;BME280;36726;52.328;10.552;2023-02-28T02:09:30;102072.09;;;-0.39;86.19
21273;BME280;36726;52.328;10.552;2023-02-28T02:11:57;102063.03;;;-0.44;85.75
21273;BME280;36726;52.328;10.552;2023-02-28T02:17:10;102059.94;;;-0.50;86.63
21273;BME280;36726;52.328;10.552;2023-02-28T02:22:54;102064.66;;;-0.56;86.67
21273;BME280;36726;52.328;10.552;2023-02-28T02:26:02;102061.03;;;-0.58;87.02
21273;BME280;36726;52.328;10.552;2023-02-28T02:35:08;102058.91;;;-0.52;87.93
21273;BME280;36726;52.328;10.552;2023-02-28T02:37:39;102053.16;;;-0.48;87.95
21273;BME280;36726;52.328;10.552;2023-02-28T02:40:14;102051.59;;;-0.46;87.92
21273;BME280;36726;52.328;10.552;2023-02-28T02:42:52;102057.41;;;-0.39;87.78
21273;BME280;36726;52.328;10.552;2023-02-28T02:45:32;102064.25;;;-0.29;88.17
21273;BME280;36726;52.328;10.552;2023-02-28T02:48:05;102073.66;;;-0.20;88.18
21273;BME280;36726;52.328;10.552;2023-02-28T02:50:43;102063.09;;;-0.11;87.65
21273;BME280;36726;52.328;10.552;2023-02-28T02:53:12;102063.84;;;-0.02;87.97
21273;BME280;36726;52.328;10.552;2023-02-28T02:55:44;102063.75;;;0.08;87.06
21273;BME280;36726;52.328;10.552;2023-02-28T02:58:17;102075.41;;;0.13;87.29
21273;BME280;36726;52.328;10.552;2023-02-28T03:00:49;102066.03;;;0.15;86.83
21273;BME280;36726;52.328;10.552;2023-02-28T03:03:18;102065.38;;;0.18;86.56
21273;BME280;36726;52.328;10.552;2023-02-28T03:05:50;102070.91;;;0.22;86.58
21273;BME280;36726;52.328;10.552;2023-02-28T03:08:17;102061.53;;;0.24;85.84
21273;BME280;36726;52.328;10.552;2023-02-28T03:10:46;102065.97;;;0.25;85.97
21273;BME280;36726;52.328;10.552;2023-02-28T03:15:58;102077.97;;;0.23;85.78
21273;BME280;36726;52.328;10.552;2023-02-28T03:18:32;102077.84;;;0.22;86.31
21273;BME280;36726;52.328;10.552;2023-02-28T03:21:13;102073.53;;;0.22;86.50
21273;BME280;36726;52.328;10.552;2023-02-28T03:26:43;102074.31;;;0.21;86.72
21273;BME280;36726;52.328;10.552;2023-02-28T03:29:28;102081.31;;;0.22;86.84
21273;BME280;36726;52.328;10.552;2023-02-28T03:32:01;102081.31;;;0.22;87.28
21273;BME280;36726;52.328;10.552;2023-02-28T03:34:37;102086.78;;;0.25;86.70
21273;BME280;36726;52.328;10.552;2023-02-28T03:37:08;102086.09;;;0.28;86.66
21273;BME280;36726;52.328;10.552;2023-02-28T03:39:41;102080.25;;;0.30;86.93
21273;BME280;36726;52.328;10.552;2023-02-28T03:42:12;102075.25;;;0.33;87.40
21273;BME280;36726;52.328;10.552;2023-02-28T03:44:43;102077.97;;;0.35;87.01
21273;BME280;36726;52.328;10.552;2023-02-28T03:47:21;102080.47;;;0.33;87.00
21273;BME280;36726;52.328;10.552;2023-02-28T03:49:54;102074.13;;;0.30;87.04
21273;BME280;36726;52.328;10.552;2023-02-28T03:52:27;102077.38;;;0.27;86.58
21273;BME280;36726;52.328;10.552;2023-02-28T03:55:00;102086.91;;;0.27;86.53
21273;BME280;36726;52.328;10.552;2023-02-28T03:57:41;102079.75;;;0.24;86.32
21273;BME280;36726;52.328;10.552;2023-02-28T04:00:17;102077.03;;;0.23;86.70
21273;BME280;36726;52.328;10.552;2023-02-28T04:02:45;102078.59;;;0.21;86.42
21273;BME280;36726;52.328;10.552;2023-02-28T04:05:12;102086.31;;;0.19;86.75
21273;BME280;36726;52.328;10.552;2023-02-28T04:07:38;102086.06;;;0.16;86.85
21273;BME280;36726;52.328;10.552;2023-02-28T04:10:05;102081.41;;;0.12;86.95
21273;BME280;36726;52.328;10.552;2023-02-28T04:12:32;102090.78;;;0.10;86.62
21273;BME280;36726;52.328;10.552;2023-02-28T04:14:59;102085.81;;;0.13;86.50
21273;BME280;36726;52.328;10.552;2023-02-28T04:17:25;102082.44;;;0.14;86.69
21273;BME280;36726;52.328;10.552;2023-02-28T04:19:52;102080.50;;;0.12;86.67
21273;BME280;36726;52.328;10.552;2023-02-28T04:22:18;102080.00;;;0.06;86.68
21273;BME280;36726;52.328;10.552;2023-02-28T04:24:45;102078.63;;;-0.01;86.77
21273;BME280;36726;52.328;10.552;2023-02-28T04:27:11;102082.19;;;-0.11;86.89
21273;BME280;36726;52.328;10.552;2023-02-28T04:29:38;102079.91;;;-0.18;87.31
21273;BME280;36726;52.328;10.552;2023-02-28T04:32:04;102086.31;;;-0.24;87.25
21273;BME280;36726;52.328;10.552;2023-02-28T04:34:32;102084.91;;;-0.31;87.49
21273;BME280;36726;52.328;10.552;2023-02-28T04:36:59;102079.34;;;-0.35;87.92
21273;BME280;36726;52.328;10.552;2023-02-28T04:39:43;102081.56;;;-0.40;87.46
21273;BME280;36726;52.328;10.552;2023-02-28T04:42:10;102101.09;;;-0.45;87.75
21273;BME280;36726;52.328;10.552;2023-02-28T04:44:37;102103.34;;;-0.49;87.71
21273;BME280;36726;52.328;10.552;2023-02-28T04:47:03;102096.72;;;-0.56;88.03
21273;BME280;36726;52.328;10.552;2023-02-28T04:49:30;102113.22;;;-0.55;87.92
21273;BME280;36726;52.328;10.552;2023-02-28T04:51:56;102108.72;;;-0.58;88.23
21273;BME280;36726;52.328;10.552;2023-02-28T04:54:23;102097.28;;;-0.60;88.31
21273;BME280;36726;52.328;10.552;2023-02-28T04:56:49;102097.94;;;-0.62;88.38
21273;BME280;36726;52.328;10.552;2023-02-28T04:59:16;102085.59;;;-0.65;87.96
21273;BME280;36726;52.328;10.552;2023-02-28T05:01:46;102090.66;;;-0.66;88.23
21273;BME280;36726;52.328;10.552;2023-02-28T05:04:13;102084.44;;;-0.68;88.44
21273;BME280;36726;52.328;10.552;2023-02-28T05:06:40;102089.63;;;-0.68;88.70
21273;BME280;36726;52.328;10.552;2023-02-28T05:09:06;102091.19;;;-0.70;88.60
21273;BME280;36726;52.328;10.552;2023-02-28T05:11:34;102093.66;;;-0.72;88.60
21273;BME280;36726;52.328;10.552;2023-02-28T05:14:03;102088.34;;;-0.73;89.12
21273;BME280;36726;52.328;10.552;2023-02-28T05:16:31;102089.28;;;-0.73;89.38
21273;BME280;36726;52.328;10.552;2023-02-28T05:18:58;102087.59;;;-0.72;89.09
21273;BME280;36726;52.328;10.552;2023-02-28T05:21:29;102088.47;;;-0.72;89.62
21273;BME280;36726;52.328;10.552;2023-02-28T05:23:58;102092.78;;;-0.72;89.60
21273;BME280;36726;52.328;10.552;2023-02-28T05:26:26;102089.28;;;-0.73;89.39
21273;BME280;36726;52.328;10.552;2023-02-28T05:28:53;102096.16;;;-0.73;89.27
21273;BME280;36726;52.328;10.552;2023-02-28T05:31:19;102094.34;;;-0.74;89.55
21273;BME280;36726;52.328;10.552;2023-02-28T05:33:46;102091.47;;;-0.77;89.13
21273;BME280;36726;52.328;10.552;2023-02-28T05:36:14;102093.84;;;-0.80;89.21
21273;BME280;36726;52.328;10.552;2023-02-28T05:38:40;102097.09;;;-0.83;88.82
21273;BME280;36726;52.328;10.552;2023-02-28T05:41:08;102098.53;;;-0.86;89.05
21273;BME280;36726;52.328;10.552;2023-02-28T05:43:36;102090.50;;;-0.89;89.48
21273;BME280;36726;52.328;10.552;2023-02-28T05:46:05;102095.56;;;-0.91;89.60
21273;BME280;36726;52.328;10.552;2023-02-28T05:48:33;102099.59;;;-0.94;89.20
21273;BME280;36726;52.328;10.552;2023-02-28T05:51:01;102099.31;;;-0.97;89.42
21273;BME280;36726;52.328;10.552;2023-02-28T05:53:29;102098.16;;;-1.01;89.38
21273;BME280;36726;52.328;10.552;2023-02-28T05:55:56;102097.16;;;-1.03;89.40
21273;BME280;36726;52.328;10.552;2023-02-28T05:58:23;102102.19;;;-1.05;89.48
21273;BME280;36726;52.328;10.552;2023-02-28T06:00:51;102100.53;;;-1.04;89.52
21273;BME280;36726;52.328;10.552;2023-02-28T06:03:18;102103.78;;;-1.07;89.28
21273;BME280;36726;52.328;10.552;2023-02-28T06:05:44;102102.75;;;-1.09;89.15
21273;BME280;36726;52.328;10.552;2023-02-28T06:08:11;102111.19;;;-1.11;89.03
21273;BME280;36726;52.328;10.552;2023-02-28T06:10:37;102113.66;;;-1.13;89.47
21273;BME280;36726;52.328;10.552;2023-02-28T06:13:04;102123.78;;;-1.16;89.65
21273;BME280;36726;52.328;10.552;2023-02-28T06:15:31;102116.78;;;-1.17;90.06
21273;BME280;36726;52.328;10.552;2023-02-28T06:17:58;102124.56;;;-1.17;90.23
21273;BME280;36726;52.328;10.552;2023-02-28T06:20:26;102122.09;;;-1.15;89.92
21273;BME280;36726;52.328;10.552;2023-02-28T06:22:56;102117.94;;;-1.13;89.97
21273;BME280;36726;52.328;10.552;2023-02-28T06:25:27;102122.38;;;-1.12;90.27
21273;BME280;36726;52.328;10.552;2023-02-28T06:27:55;102127.69;;;-1.11;90.08
21273;BME280;36726;52.328;10.552;2023-02-28T06:30:21;102126.13;;;-1.09;90.20
21273;BME280;36726;52.328;10.552;2023-02-28T06:32:54;102127.00;;;-1.08;90.25
21273;BME280;36726;52.328;10.552;2023-02-28T06:35:22;102128.97;;;-1.06;90.23
21273;BME280;36726;52.328;10.552;2023-02-28T06:37:48;102138.56;;;-1.05;89.98
21273;BME280;36726;52.328;10.552;2023-02-28T06:40:15;102130.00;;;-1.03;90.43
21273;BME280;36726;52.328;10.552;2023-02-28T06:42:42;102133.63;;;-1.01;90.24
21273;BME280;36726;52.328;10.552;2023-02-28T06:45:09;102139.72;;;-1.01;89.41
21273;BME280;36726;52.328;10.552;2023-02-28T06:47:38;102143.34;;;-0.99;89.60
21273;BME280;36726;52.328;10.552;2023-02-28T06:50:05;102146.06;;;-0.97;89.68
21273;BME280;36726;52.328;10.552;2023-02-28T06:52:32;102150.75;;;-0.93;89.59
21273;BME280;36726;52.328;10.552;2023-02-28T06:54:59;102148.44;;;-0.90;89.75
21273;BME280;36726;52.328;10.552;2023-02-28T06:57:32;102140.88;;;-0.87;89.59
21273;BME280;36726;52.328;10.552;2023-02-28T07:00:01;102150.88;;;-0.82;89.75
21273;BME280;36726;52.328;10.552;2023-02-28T07:02:29;102145.00;;;-0.79;89.58
21273;BME280;36726;52.328;10.552;2023-02-28T07:04:55;102151.50;;;-0.74;89.57
21273;BME280;36726;52.328;10.552;2023-02-28T07:07:22;102157.84;;;-0.71;89.77
21273;BME280;36726;52.328;10.552;2023-02-28T07:09:48;102162.66;;;-0.65;89.62
21273;BME280;36726;52.328;10.552;2023-02-28T07:12:15;102156.13;;;-0.60;89.81
21273;BME280;36726;52.328;10.552;2023-02-28T07:14:41;102156.66;;;-0.54;89.74
21273;BME280;36726;52.328;10.552;2023-02-28T07:17:08;102159.59;;;-0.50;89.15
21273;BME280;36726;52.328;10.552;2023-02-28T07:19:37;102158.28;;;-0.45;89.43
21273;BME280;36726;52.328;10.552;2023-02-28T07:22:05;102160.59;;;-0.38;89.43
21273;BME280;36726;52.328;10.552;2023-02-28T07:24:32;102155.91;;;-0.32;89.75
21273;BME280;36726;52.328;10.552;2023-02-28T07:26:58;102160.81;;;-0.25;89.34
21273;BME280;36726;52.328;10.552;2023-02-28T07:29:25;102164.84;;;-0.18;89.15
21273;BME280;36726;52.328;10.552;2023-02-28T07:31:52;102165.31;;;-0.12;88.83
21273;BME280;36726;52.328;10.552;2023-02-28T07:34:20;102171.00;;;-0.06;89.29
21273;BME280;36726;52.328;10.552;2023-02-28T07:36:47;102168.00;;;-0.01;88.82
21273;BME280;36726;52.328;10.552;2023-02-28T07:39:13;102163.41;;;0.07;88.64
21273;BME280;36726;52.328;10.552;2023-02-28T07:41:40;102163.88;;;0.13;88.93
21273;BME280;36726;52.328;10.552;2023-02-28T07:44:10;102160.97;;;0.20;88.99
21273;BME280;36726;52.328;10.552;2023-02-28T07:46:38;102163.25;;;0.27;88.92
21273;BME280;36726;52.328;10.552;2023-02-28T07:49:05;102166.47;;;0.35;88.54
21273;BME280;36726;52.328;10.552;2023-02-28T07:51:32;102161.09;;;0.43;88.16
21273;BME280;36726;52.328;10.552;2023-02-28T07:53:59;102159.97;;;0.51;88.11
21273;BME280;36726;52.328;10.552;2023-02-28T07:56:25;102174.72;;;0.62;87.54
21273;BME280;36726;52.328;10.552;2023-02-28T07:58:52;102175.44;;;0.71;87.36
21273;BME280;36726;52.328;10.552;2023-02-28T08:01:19;102167.31;;;0.78;87.14
21273;BME280;36726;52.328;10.552;2023-02-28T08:03:46;102170.63;;;0.87;86.80
21273;BME280;36726;52.328;10.552;2023-02-28T08:06:20;102169.38;;;0.94;85.90
21273;BME280;36726;52.328;10.552;2023-02-28T08:08:46;102167.34;;;1.01;85.81
21273;BME280;36726;52.328;10.552;2023-02-28T08:11:13;102161.97;;;1.10;84.43
21273;BME280;36726;52.328;10.552;2023-02-28T08:13:40;102170.31;;;1.18;83.66
21273;BME280;36726;52.328;10.552;2023-02-28T08:16:08;102169.22;;;1.26;83.00
21273;BME280;36726;52.328;10.552;2023-02-28T08:18:35;102165.34;;;1.32;82.41
21273;BME280;36726;52.328;10.552;2023-02-28T08:21:10;102165.94;;;1.40;81.90
21273;BME280;36726;52.328;10.552;2023-02-28T08:23:37;102175.13;;;1.46;82.33
21273;BME280;36726;52.328;10.552;2023-02-28T08:26:04;102167.84;;;1.54;81.55
21273;BME280;36726;52.328;10.552;2023-02-28T08:28:31;102174.66;;;1.63;80.41
21273;BME280;36726;52.328;10.552;2023-02-28T08:30:58;102166.50;;;1.70;80.93
21273;BME280;36726;52.328;10.552;2023-02-28T08:33:25;102169.56;;;1.76;80.52
21273;BME280;36726;52.328;10.552;2023-02-28T08:35:53;102170.13;;;1.84;80.95
21273;BME280;36726;52.328;10.552;2023-02-28T08:38:21;102168.97;;;1.92;81.31
21273;BME280;36726;52.328;10.552;2023-02-28T08:40:47;102164.19;;;1.98;81.33
21273;BME280;36726;52.328;10.552;2023-02-28T08:43:14;102164.75;;;2.05;80.60
21273;BME280;36726;52.328;10.552;2023-02-28T08:45:40;102175.03;;;2.16;80.52
21273;BME280;36726;52.328;10.552;2023-02-28T08:48:07;102166.94;;;2.24;80.30
21273;BME280;36726;52.328;10.552;2023-02-28T08:50:34;102174.53;;;2.33;79.86
21273;BME280;36726;52.328;10.552;2023-02-28T08:53:00;102172.34;;;2.39;79.71
21273;BME280;36726;52.328;10.552;2023-02-28T08:55:27;102167.66;;;2.46;79.01
21273;BME280;36726;52.328;10.552;2023-02-28T08:57:53;102169.03;;;2.53;79.21
21273;BME280;36726;52.328;10.552;2023-02-28T09:00:21;102172.03;;;2.59;78.87
21273;BME280;36726;52.328;10.552;2023-02-28T09:02:48;102167.34;;;2.66;79.11
21273;BME280;36726;52.328;10.552;2023-02-28T09:05:14;102172.31;;;2.75;78.56
21273;BME280;36726;52.328;10.552;2023-02-28T09:07:41;102169.31;;;2.82;78.26
21273;BME280;36726;52.328;10.552;2023-02-28T09:10:09;102175.78;;;2.87;78.88
21273;BME280;36726;52.328;10.552;2023-02-28T09:12:35;102172.69;;;2.92;78.81
21273;BME280;36726;52.328;10.552;2023-02-28T09:15:02;102175.69;;;2.98;79.13
21273;BME280;36726;52.328;10.552;2023-02-28T09:17:29;102170.81;;;3.03;78.75
21273;BME280;36726;52.328;10.552;2023-02-28T09:19:57;102174.63;;;3.08;78.70
21273;BME280;36726;52.328;10.552;2023-02-28T09:22:23;102175.75;;;3.11;78.87
21273;BME280;36726;52.328;10.552;2023-02-28T09:24:50;102178.66;;;3.16;78.82
21273;BME280;36726;52.328;10.552;2023-02-28T09:27:17;102181.69;;;3.22;78.47
21273;BME280;36726;52.328;10.552;2023-02-28T09:29:43;102187.25;;;3.27;77.14
21273;BME280;36726;52.328;10.552;2023-02-28T09:32:10;102178.78;;;3.31;77.60
21273;BME280;36726;52.328;10.552;2023-02-28T09:34:37;102180.78;;;3.35;78.16
21273;BME280;36726;52.328;10.552;2023-02-28T09:37:04;102180.22;;;3.39;77.40
21273;BME280;36726;52.328;10.552;2023-02-28T09:39:30;102180.63;;;3.45;76.12
21273;BME280;36726;52.328;10.552;2023-02-28T09:41:58;102184.44;;;3.50;76.25
21273;BME280;36726;52.328;10.552;2023-02-28T09:47:01;102181.63;;;3.60;75.91
21273;BME280;36726;52.328;10.552;2023-02-28T09:49:40;102190.56;;;3.63;76.05
21273;BME280;36726;52.328;10.552;2023-02-28T09:52:12;102183.03;;;3.68;75.88
21273;BME280;36726;52.328;10.552;2023-02-28T09:54:40;102185.94;;;3.72;76.05
21273;BME280;36726;52.328;10.552;2023-02-28T09:57:13;102177.50;;;3.76;74.09
21273;BME280;36726;52.328;10.552;2023-02-28T10:02:54;102186.78;;;3.84;73.81
21273;BME280;36726;52.328;10.552;2023-02-28T10:05:27;102181.91;;;3.90;72.23
21273;BME280;36726;52.328;10.552;2023-02-28T10:10:51;102185.44;;;4.04;70.39
21273;BME280;36726;52.328;10.552;2023-02-28T10:13:40;102182.22;;;4.08;70.84
21273;BME280;36726;52.328;10.552;2023-02-28T10:16:14;102185.19;;;4.14;69.17
21273;BME280;36726;52.328;10.552;2023-02-28T10:21:38;102188.59;;;4.26;65.75
21273;BME280;36726;52.328;10.552;2023-02-28T10:24:20;102188.06;;;4.32;66.69
21273;BME280;36726;52.328;10.552;2023-02-28T10:26:52;102187.56;;;4.37;66.30
21273;BME280;36726;52.328;10.552;2023-02-28T10:29:19;102186.16;;;4.42;66.08
21273;BME280;36726;52.328;10.552;2023-02-28T10:31:46;102184.00;;;4.50;65.06
21273;BME280;36726;52.328;10.552;2023-02-28T10:34:13;102193.25;;;4.58;64.17
21273;BME280;36726;52.328;10.552;2023-02-28T10:36:41;102181.72;;;4.69;63.36
21273;BME280;36726;52.328;10.552;2023-02-28T10:42:01;102181.06;;;5.15;60.14
21273;BME280;36726;52.328;10.552;2023-02-28T10:44:27;102181.91;;;5.28;61.88
21273;BME280;36726;52.328;10.552;2023-02-28T10:46:54;102176.75;;;5.30;59.85
21273;BME280;36726;52.328;10.552;2023-02-28T10:49:23;102176.75;;;5.30;59.58
21273;BME280;36726;52.328;10.552;2023-02-28T10:51:53;102175.66;;;5.26;59.36
21273;BME280;36726;52.328;10.552;2023-02-28T10:54:32;102180.53;;;5.20;55.36
21273;BME280;36726;52.328;10.552;2023-02-28T10:57:16;102180.69;;;5.23;55.26
21273;BME280;36726;52.328;10.552;2023-02-28T10:59:44;102180.63;;;5.22;57.15
21273;BME280;36726;52.328;10.552;2023-02-28T11:04:58;102172.94;;;5.10;55.99
21273;BME280;36726;52.328;10.552;2023-02-28T11:07:25;102172.56;;;5.04;57.40
21273;BME280;36726;52.328;10.552;2023-02-28T11:09:57;102169.84;;;5.03;57.05
21273;BME280;36726;52.328;10.552;2023-02-28T11:14:57;102171.75;;;5.35;57.86
21273;BME280;36726;52.328;10.552;2023-02-28T11:17:28;102169.41;;;5.68;57.05
21273;BME280;36726;52.328;10.552;2023-02-28T11:19:58;102167.38;;;5.93;56.19
21273;BME280;36726;52.328;10.552;2023-02-28T11:22:30;102157.56;;;6.05;55.51
21273;BME280;36726;52.328;10.552;2023-02-28T11:25:01;102156.00;;;6.09;54.73
21273;BME280;36726;52.328;10.552;2023-02-28T11:29:59;102154.00;;;6.05;55.23
21273;BME280;36726;52.328;10.552;2023-02-28T11:32:27;102159.25;;;6.05;54.19
21273;BME280;36726;52.328;10.552;2023-02-28T11:35:21;102150.00;;;5.95;54.28
21273;BME280;36726;52.328;10.552;2023-02-28T11:37:49;102155.88;;;5.91;54.69
21273;BME280;36726;52.328;10.552;2023-02-28T11:40:18;102141.19;;;5.95;55.09
21273;BME280;36726;52.328;10.552;2023-02-28T11:48:13;102146.94;;;5.88;55.56
21273;BME280;36726;52.328;10.552;2023-02-28T11:50:57;102142.13;;;5.81;55.45
21273;BME280;36726;52.328;10.552;2023-02-28T11:56:18;102142.34;;;6.00;52.70
21273;BME280;36726;52.328;10.552;2023-02-28T11:59:02;102144.13;;;6.15;52.79
21273;BME280;36726;52.328;10.552;2023-02-28T12:07:49;102132.56;;;6.60;52.53
21273;BME280;36726;52.328;10.552;2023-02-28T12:10:25;102129.94;;;6.76;53.22
21273;BME280;36726;52.328;10.552;2023-02-28T12:13:12;102129.78;;;6.73;50.64
21273;BME280;36726;52.328;10.552;2023-02-28T12:15:58;102127.38;;;6.62;51.14
21273;BME280;36726;52.328;10.552;2023-02-28T12:21:34;102128.78;;;6.39;50.57
21273;BME280;36726;52.328;10.552;2023-02-28T12:26:45;102110.72;;;6.29;51.67
21273;BME280;36726;52.328;10.552;2023-02-28T12:29:24;102117.59;;;6.27;51.32
21273;BME280;36726;52.328;10.552;2023-02-28T12:31:59;102116.53;;;6.23;51.29
21273;BME280;36726;52.328;10.552;2023-02-28T12:34:34;102111.03;;;6.19;51.90
21273;BME280;36726;52.328;10.552;2023-02-28T12:37:10;102109.50;;;6.22;51.27
21273;BME280;36726;52.328;10.552;2023-02-28T12:39:45;102105.22;;;6.24;50.89
21273;BME280;36726;52.328;10.552;2023-02-28T12:42:24;102104.47;;;6.27;50.70
21273;BME280;36726;52.328;10.552;2023-02-28T12:47:51;102098.63;;;6.16;51.00
21273;BME280;36726;52.328;10.552;2023-02-28T12:50:19;102092.94;;;6.09;51.33
21273;BME280;36726;52.328;10.552;2023-02-28T12:53:40;102094.34;;;6.02;51.31
21273;BME280;36726;52.328;10.552;2023-02-28T12:56:13;102084.25;;;5.94;51.86
21273;BME280;36726;52.328;10.552;2023-02-28T12:58:53;102084.06;;;5.91;52.65
21273;BME280;36726;52.328;10.552;2023-02-28T13:09:40;102071.56;;;5.87;53.43
21273;BME280;36726;52.328;10.552;2023-02-28T13:12:14;102061.25;;;5.90;52.50
21273;BME280;36726;52.328;10.552;2023-02-28T13:14:41;102055.00;;;5.88;51.96
21273;BME280;36726;52.328;10.552;2023-02-28T13:22:46;102040.91;;;5.86;51.43
21273;BME280;36726;52.328;10.552;2023-02-28T13:27:50;102042.03;;;5.91;50.42
21273;BME280;36726;52.328;10.552;2023-02-28T13:33:36;102041.31;;;5.93;49.45
21273;BME280;36726;52.328;10.552;2023-02-28T13:36:29;102044.84;;;5.94;49.20
21273;BME280;36726;52.328;10.552;2023-02-28T13:38:59;102043.03;;;5.93;49.15
21273;BME280;36726;52.328;10.552;2023-02-28T13:44:21;102054.44;;;5.93;50.19
21273;BME280;36726;52.328;10.552;2023-02-28T13:51:51;102056.66;;;6.02;50.41
21273;BME280;36726;52.328;10.552;2023-02-28T13:54:51;102051.34;;;6.00;50.36
21273;BME280;36726;52.328;10.552;2023-02-28T14:00:39;102046.31;;;6.05;49.83
21273;BME280;36726;52.328;10.552;2023-02-28T14:06:17;102048.13;;;6.06;49.73
21273;BME280;36726;52.328;10.552;2023-02-28T14:08:55;102044.75;;;6.08;48.53
21273;BME280;36726;52.328;10.552;2023-02-28T14:11:29;102050.13;;;6.10;48.95
21273;BME280;36726;52.328;10.552;2023-02-28T14:13:58;102050.91;;;6.09;48.66
21273;BME280;36726;52.328;10.552;2023-02-28T14:16:28;102047.50;;;6.10;48.51
21273;BME280;36726;52.328;10.552;2023-02-28T14:19:09;102048.38;;;6.10;48.84
21273;BME280;36726;52.328;10.552;2023-02-28T14:21:43;102049.22;;;6.09;48.40
21273;BME280;36726;52.328;10.552;2023-02-28T14:24:30;102035.16;;;6.09;48.78
21273;BME280;36726;52.328;10.552;2023-02-28T14:27:28;102037.88;;;6.10;48.66
21273;BME280;36726;52.328;10.552;2023-02-28T14:30:29;102042.25;;;6.10;49.54
21273;BME280;36726;52.328;10.552;2023-02-28T14:36:04;102044.69;;;6.07;48.44
21273;BME280;36726;52.328;10.552;2023-02-28T14:38:41;102040.25;;;6.06;48.85
21273;BME280;36726;52.328;10.552;2023-02-28T14:41:30;102030.56;;;6.05;48.26
21273;BME280;36726;52.328;10.552;2023-02-28T14:43:59;102035.00;;;6.06;48.37